createdAt,value
2023-03-12T00:03:04.679Z,3.4
2023-03-12T00:08:28.218Z,3.5
2023-03-12T00:13:44.618Z,3.5
2023-03-12T00:19:34.932Z,3.5
2023-03-12T00:24:56.783Z,3.5
2023-03-12T00:30:45.957Z,3.5
2023-03-12T00:36:21.901Z,3.6
2023-03-12T00:41:49.411Z,3.5
2023-03-12T00:47:10.572Z,3.6
2023-03-12T00:52:46.270Z,3.5
2023-03-12T00:58:35.477Z,3.5
2023-03-12T01:04:02.366Z,3.5
2023-03-12T01:09:30.717Z,3.6
2023-03-12T01:14:57.024Z,3.6
2023-03-12T01:20:35.972Z,3.6
2023-03-12T01:26:19.618Z,3.6
2023-03-12T01:31:37.655Z,3.6
2023-03-12T01:37:03.111Z,3.6
2023-03-12T01:42:56.568Z,3.5
2023-03-12T01:48:20.001Z,3.6
2023-03-12T01:53:48.652Z,3.6
2023-03-12T01:59:23.971Z,3.7
2023-03-12T02:04:59.311Z,3.7
2023-03-12T02:10:25.554Z,3.6
2023-03-12T02:16:14.157Z,3.7
2023-03-12T02:21:48.724Z,3.6
2023-03-12T02:27:02.797Z,3.7
2023-03-12T02:32:28.941Z,3.7
2023-03-12T02:38:03.651Z,3.6
2023-03-12T02:43:57.074Z,3.5
2023-03-12T02:49:25.705Z,3.3
2023-03-12T02:55:01.951Z,3.5
2023-03-12T03:00:13.367Z,3.5
2023-03-12T03:05:46.661Z,3.5
2023-03-12T03:11:33.283Z,3.5
2023-03-12T03:17:03.345Z,3.5
2023-03-12T03:22:46.034Z,3.5
2023-03-12T03:28:01.487Z,3.5
2023-03-12T03:33:54.875Z,3.6
2023-03-12T03:39:11.078Z,3.6
2023-03-12T03:44:58.134Z,3.6
2023-03-12T03:50:25.385Z,3.7
2023-03-12T03:55:44.011Z,3.7
2023-03-12T04:01:16.400Z,3.7
2023-03-12T04:07:11.123Z,3.7
2023-03-12T04:12:20.241Z,3.7
2023-03-12T04:18:12.706Z,3.7
2023-03-12T04:23:50.432Z,3.7
2023-03-12T04:29:25.080Z,3.8
2023-03-12T04:34:40.911Z,3.8
2023-03-12T04:40:09.672Z,3.7
2023-03-12T04:45:42.203Z,3.7
2023-03-12T04:51:11.752Z,3.7
2023-03-12T04:56:45.083Z,3.8
2023-03-12T05:02:43.120Z,3.8
2023-03-12T05:08:12.612Z,3.8
2023-03-12T05:13:23.622Z,3.8
2023-03-12T05:19:10.503Z,3.8
2023-03-12T05:24:37.016Z,3.8
2023-03-12T05:30:28.907Z,3.7
2023-03-12T05:35:52.621Z,3.8
2023-03-12T05:41:19.614Z,3.8
2023-03-12T05:46:42.702Z,3.8
2023-03-12T05:52:20.480Z,3.9
2023-03-12T05:58:02.975Z,3.8
2023-03-12T06:03:31.680Z,3.8
2023-03-12T06:09:09.743Z,3.9
2023-03-12T06:14:40.689Z,4
2023-03-12T06:20:25.951Z,4.1
2023-03-12T06:25:43.332Z,4.1
2023-03-12T06:31:04.950Z,4.1
2023-03-12T06:36:54.680Z,4.1
2023-03-12T06:42:11.582Z,4.2
2023-03-12T06:48:07.179Z,4.3
2023-03-12T06:53:18.475Z,4.3
2023-03-12T06:58:52.273Z,4.5
2023-03-12T07:04:22.398Z,4.6
2023-03-12T07:10:07.695Z,4.6
2023-03-12T07:15:47.902Z,4.7
2023-03-12T07:21:16.138Z,4.8
2023-03-12T07:26:56.793Z,5.1
2023-03-12T07:32:09.242Z,5
2023-03-12T07:37:49.883Z,5.1
2023-03-12T07:43:16.607Z,5.5
2023-03-12T07:48:50.832Z,5.9
2023-03-12T07:54:42.526Z,6
2023-03-12T08:00:14.544Z,6
2023-03-12T08:05:55.752Z,6.3
2023-03-12T08:11:07.526Z,6.4
2023-03-12T08:16:39.456Z,6.2
2023-03-12T08:22:35.922Z,6.2
2023-03-12T08:28:08.380Z,6.4
2023-03-12T08:33:44.909Z,6.8
2023-03-12T08:38:56.823Z,6.8
2023-03-12T08:44:38.137Z,6.7
2023-03-12T08:50:02.674Z,6.9
2023-03-12T08:55:36.775Z,7.3
2023-03-12T09:01:16.024Z,7.3
2023-03-12T09:06:54.431Z,7.2
2023-03-12T09:12:40.273Z,7.3
2023-03-12T09:18:00.496Z,7.3
2023-03-12T09:23:49.410Z,7.5
2023-03-12T09:29:13.733Z,7.6
2023-03-12T09:35:01.396Z,7.8
2023-03-12T09:40:35.559Z,8
2023-03-12T09:45:46.635Z,8
2023-03-12T09:51:19.733Z,8
2023-03-12T09:56:56.855Z,8
2023-03-12T10:02:42.480Z,8.1
2023-03-12T10:08:24.073Z,8.4
2023-03-12T10:13:47.982Z,8.7
2023-03-12T10:19:39.396Z,8.8
2023-03-12T10:30:48.759Z,9.1
2023-03-12T10:36:25.584Z,9.2
2023-03-12T10:41:51.937Z,9.2
2023-03-12T10:47:24.821Z,9.4
2023-03-12T10:52:55.149Z,9.4
2023-03-12T10:58:19.432Z,9.5
2023-03-12T11:04:07.615Z,9.7
2023-03-12T11:09:33.378Z,9.8
2023-03-12T11:15:04.978Z,9.9
2023-03-12T11:20:40.543Z,10.3
2023-03-12T11:26:35.197Z,10.6
2023-03-12T11:31:59.691Z,11
2023-03-12T11:37:40.331Z,10.8
2023-03-12T11:43:13.060Z,11.1
2023-03-12T11:48:47.318Z,11.5
2023-03-12T11:54:12.671Z,11.3
2023-03-12T12:00:06.982Z,11.6
2023-03-12T12:05:23.892Z,12.3
2023-03-12T12:11:13.700Z,11.7
2023-03-12T12:16:52.149Z,11.6
2023-03-12T12:22:30.631Z,11.3
2023-03-12T12:28:01.257Z,11.2
2023-03-12T12:33:34.724Z,11
2023-03-12T12:38:57.965Z,11.1
2023-03-12T12:44:33.547Z,11.5
2023-03-12T12:50:23.025Z,11.4
2023-03-12T12:55:48.011Z,11.3
2023-03-12T13:01:28.447Z,12
2023-03-12T13:07:04.088Z,11.7
2023-03-12T13:12:29.776Z,12.2
2023-03-12T13:18:09.378Z,12.6
2023-03-12T13:23:51.809Z,12.6
2023-03-12T13:29:17.768Z,12.7
2023-03-12T13:35:15.680Z,12.8
2023-03-12T13:40:37.463Z,13.6
2023-03-12T13:46:08.046Z,13.3
2023-03-12T13:51:53.732Z,13.6
2023-03-12T13:57:41.988Z,13.4
2023-03-12T14:03:20.561Z,14
2023-03-12T14:08:42.771Z,13.9
2023-03-12T14:14:21.779Z,13.5
2023-03-12T14:19:48.765Z,13.4
2023-03-12T14:25:34.479Z,13.4
2023-03-12T14:31:01.023Z,13.5
2023-03-12T14:37:00.552Z,13.4
2023-03-12T14:42:16.567Z,13.2
2023-03-12T14:48:12.595Z,13.3
2023-03-12T14:53:48.752Z,13.4
2023-03-12T14:59:22.649Z,12.8
2023-03-12T15:04:55.180Z,13.3
2023-03-12T15:10:23.117Z,13.4
2023-03-12T15:15:52.638Z,13.9
2023-03-12T15:21:38.968Z,13.5
2023-03-12T15:27:08.696Z,13.7
2023-03-12T15:32:39.703Z,13.7
2023-03-12T15:38:36.283Z,13.8
2023-03-12T15:43:52.946Z,13.4
2023-03-12T15:49:40.822Z,13.5
2023-03-12T15:55:24.975Z,13.4
2023-03-12T16:00:54.235Z,13.2
2023-03-12T16:06:21.970Z,12.9
2023-03-12T16:12:01.112Z,12.9
2023-03-12T16:17:32.552Z,12.8
2023-03-12T16:23:06.422Z,12.6
2023-03-12T16:28:40.976Z,12.6
2023-03-12T16:34:24.735Z,12.6
2023-03-12T16:40:00.084Z,12.5
2023-03-12T16:45:29.696Z,12.4
2023-03-12T16:50:56.930Z,12.2
2023-03-12T16:56:37.914Z,12.1
2023-03-12T17:02:29.359Z,12.1
2023-03-12T17:07:55.014Z,12
2023-03-12T17:13:17.979Z,11.7
2023-03-12T17:19:17.843Z,11.6
2023-03-12T17:24:26.211Z,11.4
2023-03-12T17:30:18.882Z,11.2
2023-03-12T17:35:54.238Z,11.1
2023-03-12T17:41:19.809Z,11
2023-03-12T17:46:59.570Z,10.7
2023-03-12T17:52:21.470Z,10.5
2023-03-12T17:58:14.046Z,10.1
2023-03-12T18:03:45.152Z,9.7
2023-03-12T18:09:06.754Z,9.7
2023-03-12T18:14:54.277Z,9.6
2023-03-12T18:20:37.621Z,9.7
2023-03-12T18:25:52.384Z,9.5
2023-03-12T18:31:21.804Z,9.6
2023-03-12T18:37:06.985Z,9.6
2023-03-12T18:42:40.558Z,8.9
2023-03-12T18:48:03.517Z,9
2023-03-12T18:53:34.120Z,8.7
2023-03-12T18:59:16.129Z,9
2023-03-12T19:04:37.937Z,7.9
2023-03-12T19:10:07.195Z,8.4
2023-03-12T19:15:46.979Z,8.3
2023-03-12T19:21:14.316Z,7.7
2023-03-12T19:27:14.921Z,7.2
2023-03-12T19:32:42.150Z,7.5
2023-03-12T19:38:10.489Z,7.6
2023-03-12T19:43:48.012Z,7.6
2023-03-12T19:49:26.241Z,7.6
2023-03-12T19:55:03.635Z,7.6
2023-03-12T20:00:14.090Z,7.6
2023-03-12T20:05:57.852Z,7.8
2023-03-12T20:11:30.326Z,7.5
2023-03-12T20:17:02.219Z,8.2
2023-03-12T20:22:27.405Z,8.4
2023-03-12T20:28:12.862Z,8.1
2023-03-12T20:33:32.318Z,7.4
2023-03-12T20:39:23.236Z,7.4
2023-03-12T20:44:35.134Z,7.3
2023-03-12T20:50:09.281Z,7.5
2023-03-12T20:55:45.363Z,7.5
2023-03-12T21:01:37.545Z,7.5
2023-03-12T21:07:00.458Z,7.7
2023-03-12T21:12:35.145Z,7.5
2023-03-12T21:18:16.317Z,7.4
2023-03-12T21:23:40.716Z,7.3
2023-03-12T21:29:20.444Z,7.2
2023-03-12T21:34:53.885Z,7
2023-03-12T21:40:14.220Z,7.3
2023-03-12T21:45:59.397Z,7
2023-03-12T21:51:16.937Z,6.8
2023-03-12T21:56:48.443Z,7
2023-03-12T22:02:35.364Z,6.7
2023-03-12T22:08:05.689Z,6.3
2023-03-12T22:13:51.518Z,6.7
2023-03-12T22:19:10.726Z,7
2023-03-12T22:24:53.696Z,7.3
2023-03-12T22:30:32.410Z,7.5
2023-03-12T22:36:08.578Z,7.7
2023-03-12T22:41:41.564Z,7.5
2023-03-12T22:46:49.897Z,7.2
2023-03-12T22:52:20.401Z,7.5
2023-03-12T22:58:11.369Z,7.5
2023-03-12T23:03:47.768Z,7.3
2023-03-12T23:09:12.592Z,6.9
2023-03-12T23:15:00.635Z,7.2
2023-03-12T23:20:12.134Z,7
2023-03-12T23:26:07.691Z,6.5
2023-03-12T23:31:27.842Z,6.4
2023-03-12T23:36:54.434Z,5.6
2023-03-12T23:42:32.461Z,6
2023-03-12T23:48:09.983Z,6.6
2023-03-12T23:53:52.403Z,7.1
2023-03-12T23:59:20.470Z,7
